sensor_id;sensor_type;location;lat;lon;timestamp;P1;durP1;ratioP1;P2;durP2;ratioP2
51664;SDS011;37751;52.408;12.536;2022-10-22T00:02:19;20.77;;;12.18;;
51664;SDS011;37751;52.408;12.536;2022-10-22T00:04:46;20.77;;;11.77;;
51664;SDS011;37751;52.408;12.536;2022-10-22T00:07:16;28.48;;;13.90;;
51664;SDS011;37751;52.408;12.536;2022-10-22T00:09:43;23.25;;;14.93;;
51664;SDS011;37751;52.408;12.536;2022-10-22T00:12:10;24.90;;;14.15;;
51664;SDS011;37751;52.408;12.536;2022-10-22T00:14:38;21.25;;;12.13;;
51664;SDS011;37751;52.408;12.536;2022-10-22T00:17:04;20.75;;;12.13;;
51664;SDS011;37751;52.408;12.536;2022-10-22T00:19:36;21.38;;;12.18;;
51664;SDS011;37751;52.408;12.536;2022-10-22T00:22:04;21.67;;;12.35;;
51664;SDS011;37751;52.408;12.536;2022-10-22T00:24:31;23.02;;;11.57;;
51664;SDS011;37751;52.408;12.536;2022-10-22T00:26:59;27.13;;;11.98;;
51664;SDS011;37751;52.408;12.536;2022-10-22T00:29:26;14.45;;;10.35;;
51664;SDS011;37751;52.408;12.536;2022-10-22T00:31:53;18.85;;;10.93;;
51664;SDS011;37751;52.408;12.536;2022-10-22T00:34:20;23.50;;;12.43;;
51664;SDS011;37751;52.408;12.536;2022-10-22T00:36:48;17.23;;;11.30;;
51664;SDS011;37751;52.408;12.536;2022-10-22T00:39:16;21.20;;;11.70;;
51664;SDS011;37751;52.408;12.536;2022-10-22T00:41:47;24.13;;;12.35;;
51664;SDS011;37751;52.408;12.536;2022-10-22T00:47:34;23.30;;;10.80;;
51664;SDS011;37751;52.408;12.536;2022-10-22T00:50:05;20.08;;;10.50;;
51664;SDS011;37751;52.408;12.536;2022-10-22T00:52:40;14.93;;;10.32;;
51664;SDS011;37751;52.408;12.536;2022-10-22T00:55:07;17.30;;;10.90;;
51664;SDS011;37751;52.408;12.536;2022-10-22T00:57:34;19.45;;;11.82;;
51664;SDS011;37751;52.408;12.536;2022-10-22T01:00:02;25.05;;;11.45;;
51664;SDS011;37751;52.408;12.536;2022-10-22T01:02:33;14.93;;;10.80;;
51664;SDS011;37751;52.408;12.536;2022-10-22T01:04:59;19.33;;;10.65;;
51664;SDS011;37751;52.408;12.536;2022-10-22T01:07:27;17.65;;;10.13;;
51664;SDS011;37751;52.408;12.536;2022-10-22T01:10:07;18.02;;;10.57;;
51664;SDS011;37751;52.408;12.536;2022-10-22T01:12:56;16.17;;;10.55;;
51664;SDS011;37751;52.408;12.536;2022-10-22T01:15:44;16.35;;;10.13;;
51664;SDS011;37751;52.408;12.536;2022-10-22T01:18:28;20.08;;;10.45;;
51664;SDS011;37751;52.408;12.536;2022-10-22T01:24:13;15.52;;;10.88;;
51664;SDS011;37751;52.408;12.536;2022-10-22T01:30:02;17.45;;;10.45;;
51664;SDS011;37751;52.408;12.536;2022-10-22T01:32:43;15.60;;;9.85;;
51664;SDS011;37751;52.408;12.536;2022-10-22T01:35:26;18.55;;;10.85;;
51664;SDS011;37751;52.408;12.536;2022-10-22T01:37:59;20.92;;;11.13;;
51664;SDS011;37751;52.408;12.536;2022-10-22T01:40:30;27.60;;;11.80;;
51664;SDS011;37751;52.408;12.536;2022-10-22T01:42:58;19.05;;;12.57;;
51664;SDS011;37751;52.408;12.536;2022-10-22T01:45:35;22.50;;;11.27;;
51664;SDS011;37751;52.408;12.536;2022-10-22T01:48:18;19.15;;;10.70;;
51664;SDS011;37751;52.408;12.536;2022-10-22T01:57:09;17.65;;;11.90;;
51664;SDS011;37751;52.408;12.536;2022-10-22T02:00:03;18.85;;;11.25;;
51664;SDS011;37751;52.408;12.536;2022-10-22T02:05:22;25.83;;;11.50;;
51664;SDS011;37751;52.408;12.536;2022-10-22T02:07:54;21.38;;;11.07;;
51664;SDS011;37751;52.408;12.536;2022-10-22T02:10:28;23.15;;;10.35;;
51664;SDS011;37751;52.408;12.536;2022-10-22T02:12:56;18.17;;;10.52;;
51664;SDS011;37751;52.408;12.536;2022-10-22T02:15:25;19.27;;;10.13;;
51664;SDS011;37751;52.408;12.536;2022-10-22T02:17:54;14.98;;;10.55;;
51664;SDS011;37751;52.408;12.536;2022-10-22T02:20:25;24.48;;;11.27;;
51664;SDS011;37751;52.408;12.536;2022-10-22T02:22:55;21.77;;;10.88;;
51664;SDS011;37751;52.408;12.536;2022-10-22T02:25:24;20.63;;;11.65;;
51664;SDS011;37751;52.408;12.536;2022-10-22T02:30:47;14.52;;;9.95;;
51664;SDS011;37751;52.408;12.536;2022-10-22T02:33:21;17.35;;;11.07;;
51664;SDS011;37751;52.408;12.536;2022-10-22T02:35:55;16.25;;;9.38;;
51664;SDS011;37751;52.408;12.536;2022-10-22T02:38:23;17.95;;;9.20;;
51664;SDS011;37751;52.408;12.536;2022-10-22T02:40:52;20.35;;;9.77;;
51664;SDS011;37751;52.408;12.536;2022-10-22T02:43:18;13.95;;;10.05;;
51664;SDS011;37751;52.408;12.536;2022-10-22T02:45:45;16.98;;;10.90;;
51664;SDS011;37751;52.408;12.536;2022-10-22T02:48:12;16.35;;;10.48;;
51664;SDS011;37751;52.408;12.536;2022-10-22T02:50:38;20.88;;;13.88;;
51664;SDS011;37751;52.408;12.536;2022-10-22T02:53:05;21.20;;;11.50;;
51664;SDS011;37751;52.408;12.536;2022-10-22T02:55:32;16.08;;;10.98;;
51664;SDS011;37751;52.408;12.536;2022-10-22T02:57:58;17.20;;;10.90;;
51664;SDS011;37751;52.408;12.536;2022-10-22T03:00:25;20.70;;;11.07;;
51664;SDS011;37751;52.408;12.536;2022-10-22T03:02:51;17.67;;;11.27;;
51664;SDS011;37751;52.408;12.536;2022-10-22T03:05:18;21.92;;;11.98;;
51664;SDS011;37751;52.408;12.536;2022-10-22T03:07:44;21.40;;;12.68;;
51664;SDS011;37751;52.408;12.536;2022-10-22T03:10:11;17.52;;;11.80;;
51664;SDS011;37751;52.408;12.536;2022-10-22T03:12:38;20.95;;;12.75;;
51664;SDS011;37751;52.408;12.536;2022-10-22T03:15:04;25.58;;;12.45;;
51664;SDS011;37751;52.408;12.536;2022-10-22T03:17:31;21.92;;;12.65;;
51664;SDS011;37751;52.408;12.536;2022-10-22T03:19:58;27.88;;;12.63;;
51664;SDS011;37751;52.408;12.536;2022-10-22T03:22:28;20.17;;;13.00;;
51664;SDS011;37751;52.408;12.536;2022-10-22T03:24:58;22.77;;;11.98;;
51664;SDS011;37751;52.408;12.536;2022-10-22T03:27:28;21.75;;;11.85;;
51664;SDS011;37751;52.408;12.536;2022-10-22T03:29:55;18.23;;;12.30;;
51664;SDS011;37751;52.408;12.536;2022-10-22T03:32:23;16.13;;;11.10;;
51664;SDS011;37751;52.408;12.536;2022-10-22T03:34:49;21.13;;;11.40;;
51664;SDS011;37751;52.408;12.536;2022-10-22T03:37:16;20.63;;;12.18;;
51664;SDS011;37751;52.408;12.536;2022-10-22T03:39:43;20.20;;;11.65;;
51664;SDS011;37751;52.408;12.536;2022-10-22T03:42:10;25.20;;;12.88;;
51664;SDS011;37751;52.408;12.536;2022-10-22T03:44:38;25.33;;;12.65;;
51664;SDS011;37751;52.408;12.536;2022-10-22T03:47:05;21.55;;;11.77;;
51664;SDS011;37751;52.408;12.536;2022-10-22T03:49:32;24.35;;;13.07;;
51664;SDS011;37751;52.408;12.536;2022-10-22T03:52:09;16.45;;;11.65;;
51664;SDS011;37751;52.408;12.536;2022-10-22T03:54:39;22.42;;;13.27;;
51664;SDS011;37751;52.408;12.536;2022-10-22T03:57:07;22.40;;;13.40;;
51664;SDS011;37751;52.408;12.536;2022-10-22T03:59:35;27.25;;;13.30;;
51664;SDS011;37751;52.408;12.536;2022-10-22T04:02:03;24.40;;;13.20;;
51664;SDS011;37751;52.408;12.536;2022-10-22T04:04:31;21.80;;;14.27;;
51664;SDS011;37751;52.408;12.536;2022-10-22T04:06:57;20.77;;;12.95;;
51664;SDS011;37751;52.408;12.536;2022-10-22T04:09:24;25.60;;;14.27;;
51664;SDS011;37751;52.408;12.536;2022-10-22T04:11:51;23.33;;;13.65;;
51664;SDS011;37751;52.408;12.536;2022-10-22T04:14:18;28.65;;;13.88;;
51664;SDS011;37751;52.408;12.536;2022-10-22T04:16:44;23.15;;;13.57;;
51664;SDS011;37751;52.408;12.536;2022-10-22T04:19:11;22.85;;;12.35;;
51664;SDS011;37751;52.408;12.536;2022-10-22T04:21:38;19.88;;;12.77;;
51664;SDS011;37751;52.408;12.536;2022-10-22T04:24:05;26.50;;;13.10;;
51664;SDS011;37751;52.408;12.536;2022-10-22T04:26:31;19.75;;;12.55;;
51664;SDS011;37751;52.408;12.536;2022-10-22T04:28:58;21.77;;;12.68;;
51664;SDS011;37751;52.408;12.536;2022-10-22T04:31:24;25.90;;;13.88;;
51664;SDS011;37751;52.408;12.536;2022-10-22T04:33:52;26.38;;;13.27;;
51664;SDS011;37751;52.408;12.536;2022-10-22T04:36:24;21.35;;;12.70;;
51664;SDS011;37751;52.408;12.536;2022-10-22T04:38:53;26.08;;;13.38;;
51664;SDS011;37751;52.408;12.536;2022-10-22T04:41:25;21.48;;;12.80;;
51664;SDS011;37751;52.408;12.536;2022-10-22T04:43:56;22.15;;;13.15;;
51664;SDS011;37751;52.408;12.536;2022-10-22T04:46:26;21.50;;;13.45;;
51664;SDS011;37751;52.408;12.536;2022-10-22T04:48:55;17.98;;;12.25;;
51664;SDS011;37751;52.408;12.536;2022-10-22T04:51:23;22.65;;;12.27;;
51664;SDS011;37751;52.408;12.536;2022-10-22T04:53:51;20.75;;;13.43;;
51664;SDS011;37751;52.408;12.536;2022-10-22T04:56:20;20.25;;;13.27;;
51664;SDS011;37751;52.408;12.536;2022-10-22T04:59:00;22.17;;;13.02;;
51664;SDS011;37751;52.408;12.536;2022-10-22T05:01:33;21.35;;;13.43;;
51664;SDS011;37751;52.408;12.536;2022-10-22T05:04:10;22.58;;;12.63;;
51664;SDS011;37751;52.408;12.536;2022-10-22T05:06:39;27.45;;;15.90;;
51664;SDS011;37751;52.408;12.536;2022-10-22T05:09:07;30.05;;;17.33;;
51664;SDS011;37751;52.408;12.536;2022-10-22T05:11:41;22.60;;;13.65;;
51664;SDS011;37751;52.408;12.536;2022-10-22T05:14:11;26.83;;;13.68;;
51664;SDS011;37751;52.408;12.536;2022-10-22T05:16:38;23.85;;;14.55;;
51664;SDS011;37751;52.408;12.536;2022-10-22T05:19:05;27.27;;;14.07;;
51664;SDS011;37751;52.408;12.536;2022-10-22T05:21:32;23.50;;;13.38;;
51664;SDS011;37751;52.408;12.536;2022-10-22T05:23:59;20.20;;;13.55;;
51664;SDS011;37751;52.408;12.536;2022-10-22T05:26:27;20.88;;;13.27;;
51664;SDS011;37751;52.408;12.536;2022-10-22T05:28:54;23.45;;;13.68;;
51664;SDS011;37751;52.408;12.536;2022-10-22T05:31:20;26.20;;;14.85;;
51664;SDS011;37751;52.408;12.536;2022-10-22T05:33:47;22.90;;;13.70;;
51664;SDS011;37751;52.408;12.536;2022-10-22T05:36:15;21.13;;;13.65;;
51664;SDS011;37751;52.408;12.536;2022-10-22T05:38:45;22.13;;;14.02;;
51664;SDS011;37751;52.408;12.536;2022-10-22T05:41:12;21.77;;;14.35;;
51664;SDS011;37751;52.408;12.536;2022-10-22T05:43:42;26.38;;;14.75;;
51664;SDS011;37751;52.408;12.536;2022-10-22T05:46:10;23.75;;;14.35;;
51664;SDS011;37751;52.408;12.536;2022-10-22T05:48:51;25.65;;;14.13;;
51664;SDS011;37751;52.408;12.536;2022-10-22T05:51:20;23.48;;;14.70;;
51664;SDS011;37751;52.408;12.536;2022-10-22T05:53:50;23.95;;;14.70;;
51664;SDS011;37751;52.408;12.536;2022-10-22T05:56:22;27.35;;;14.48;;
51664;SDS011;37751;52.408;12.536;2022-10-22T05:58:50;21.35;;;13.75;;
51664;SDS011;37751;52.408;12.536;2022-10-22T06:01:21;24.38;;;14.32;;
51664;SDS011;37751;52.408;12.536;2022-10-22T06:03:57;22.65;;;13.98;;
51664;SDS011;37751;52.408;12.536;2022-10-22T06:06:26;21.13;;;14.20;;
51664;SDS011;37751;52.408;12.536;2022-10-22T06:09:04;25.10;;;15.95;;
51664;SDS011;37751;52.408;12.536;2022-10-22T06:11:32;26.27;;;14.98;;
51664;SDS011;37751;52.408;12.536;2022-10-22T06:14:00;27.17;;;14.98;;
51664;SDS011;37751;52.408;12.536;2022-10-22T06:16:28;21.85;;;15.02;;
51664;SDS011;37751;52.408;12.536;2022-10-22T06:18:57;23.48;;;16.27;;
51664;SDS011;37751;52.408;12.536;2022-10-22T06:21:27;23.13;;;15.95;;
51664;SDS011;37751;52.408;12.536;2022-10-22T06:23:55;25.00;;;15.25;;
51664;SDS011;37751;52.408;12.536;2022-10-22T06:26:23;24.02;;;16.00;;
51664;SDS011;37751;52.408;12.536;2022-10-22T06:28:50;26.90;;;15.80;;
51664;SDS011;37751;52.408;12.536;2022-10-22T06:31:16;24.10;;;15.90;;
51664;SDS011;37751;52.408;12.536;2022-10-22T06:33:43;26.17;;;15.43;;
51664;SDS011;37751;52.408;12.536;2022-10-22T06:36:11;26.20;;;15.40;;
51664;SDS011;37751;52.408;12.536;2022-10-22T06:38:40;25.45;;;16.00;;
51664;SDS011;37751;52.408;12.536;2022-10-22T06:41:08;23.17;;;14.82;;
51664;SDS011;37751;52.408;12.536;2022-10-22T06:43:40;24.10;;;15.00;;
51664;SDS011;37751;52.408;12.536;2022-10-22T06:46:12;25.13;;;14.82;;
51664;SDS011;37751;52.408;12.536;2022-10-22T06:48:52;21.30;;;15.52;;
51664;SDS011;37751;52.408;12.536;2022-10-22T06:51:22;22.00;;;14.85;;
51664;SDS011;37751;52.408;12.536;2022-10-22T06:53:49;23.52;;;14.68;;
51664;SDS011;37751;52.408;12.536;2022-10-22T06:56:17;21.05;;;14.38;;
51664;SDS011;37751;52.408;12.536;2022-10-22T06:58:46;26.75;;;16.17;;
51664;SDS011;37751;52.408;12.536;2022-10-22T07:01:18;23.90;;;14.95;;
51664;SDS011;37751;52.408;12.536;2022-10-22T07:03:49;22.80;;;15.32;;
51664;SDS011;37751;52.408;12.536;2022-10-22T07:06:17;20.90;;;13.88;;
51664;SDS011;37751;52.408;12.536;2022-10-22T07:08:45;22.25;;;15.05;;
51664;SDS011;37751;52.408;12.536;2022-10-22T07:11:13;22.75;;;14.63;;
51664;SDS011;37751;52.408;12.536;2022-10-22T07:13:42;19.38;;;14.50;;
51664;SDS011;37751;52.408;12.536;2022-10-22T07:16:11;27.08;;;15.50;;
51664;SDS011;37751;52.408;12.536;2022-10-22T07:18:38;19.42;;;13.93;;
51664;SDS011;37751;52.408;12.536;2022-10-22T07:21:07;26.77;;;16.30;;
51664;SDS011;37751;52.408;12.536;2022-10-22T07:23:36;26.42;;;17.13;;
51664;SDS011;37751;52.408;12.536;2022-10-22T07:26:03;30.15;;;17.30;;
51664;SDS011;37751;52.408;12.536;2022-10-22T07:28:33;22.00;;;15.57;;
51664;SDS011;37751;52.408;12.536;2022-10-22T07:31:01;22.92;;;14.90;;
51664;SDS011;37751;52.408;12.536;2022-10-22T07:33:28;23.65;;;15.57;;
51664;SDS011;37751;52.408;12.536;2022-10-22T07:35:58;23.15;;;16.02;;
51664;SDS011;37751;52.408;12.536;2022-10-22T07:38:26;24.42;;;14.77;;
51664;SDS011;37751;52.408;12.536;2022-10-22T07:40:54;21.08;;;15.15;;
51664;SDS011;37751;52.408;12.536;2022-10-22T07:43:20;25.20;;;15.00;;
51664;SDS011;37751;52.408;12.536;2022-10-22T07:45:48;24.70;;;15.30;;
51664;SDS011;37751;52.408;12.536;2022-10-22T07:48:15;19.40;;;14.00;;
51664;SDS011;37751;52.408;12.536;2022-10-22T07:50:42;19.25;;;14.32;;
51664;SDS011;37751;52.408;12.536;2022-10-22T07:53:09;18.95;;;14.18;;
51664;SDS011;37751;52.408;12.536;2022-10-22T07:55:36;18.15;;;13.20;;
51664;SDS011;37751;52.408;12.536;2022-10-22T07:58:03;18.95;;;13.45;;
51664;SDS011;37751;52.408;12.536;2022-10-22T08:00:29;20.17;;;13.25;;
51664;SDS011;37751;52.408;12.536;2022-10-22T08:02:56;18.35;;;13.20;;
51664;SDS011;37751;52.408;12.536;2022-10-22T08:05:22;20.27;;;14.45;;
51664;SDS011;37751;52.408;12.536;2022-10-22T08:07:49;21.17;;;15.20;;
51664;SDS011;37751;52.408;12.536;2022-10-22T08:10:15;18.70;;;14.55;;
51664;SDS011;37751;52.408;12.536;2022-10-22T08:12:42;23.92;;;14.15;;
51664;SDS011;37751;52.408;12.536;2022-10-22T08:15:09;22.27;;;13.80;;
51664;SDS011;37751;52.408;12.536;2022-10-22T08:17:36;15.80;;;12.13;;
51664;SDS011;37751;52.408;12.536;2022-10-22T08:20:02;18.60;;;14.48;;
51664;SDS011;37751;52.408;12.536;2022-10-22T08:22:29;16.05;;;11.85;;
51664;SDS011;37751;52.408;12.536;2022-10-22T08:24:56;20.45;;;12.57;;
51664;SDS011;37751;52.408;12.536;2022-10-22T08:27:23;14.85;;;11.82;;
51664;SDS011;37751;52.408;12.536;2022-10-22T08:29:49;15.55;;;11.52;;
51664;SDS011;37751;52.408;12.536;2022-10-22T08:32:16;15.73;;;11.68;;
51664;SDS011;37751;52.408;12.536;2022-10-22T08:34:43;21.10;;;11.70;;
51664;SDS011;37751;52.408;12.536;2022-10-22T08:37:09;15.35;;;10.75;;
51664;SDS011;37751;52.408;12.536;2022-10-22T08:39:39;17.75;;;10.70;;
51664;SDS011;37751;52.408;12.536;2022-10-22T08:45:21;14.70;;;10.02;;
51664;SDS011;37751;52.408;12.536;2022-10-22T08:50:57;16.48;;;10.73;;
51664;SDS011;37751;52.408;12.536;2022-10-22T08:53:29;14.68;;;10.23;;
51664;SDS011;37751;52.408;12.536;2022-10-22T08:56:05;18.95;;;11.18;;
51664;SDS011;37751;52.408;12.536;2022-10-22T08:58:39;17.90;;;11.10;;
51664;SDS011;37751;52.408;12.536;2022-10-22T09:01:22;18.65;;;11.00;;
51664;SDS011;37751;52.408;12.536;2022-10-22T09:07:08;19.70;;;10.60;;
51664;SDS011;37751;52.408;12.536;2022-10-22T09:09:37;15.82;;;10.70;;
51664;SDS011;37751;52.408;12.536;2022-10-22T09:12:15;16.75;;;10.35;;
51664;SDS011;37751;52.408;12.536;2022-10-22T09:14:45;17.05;;;10.20;;
51664;SDS011;37751;52.408;12.536;2022-10-22T09:20:06;19.13;;;11.15;;
51664;SDS011;37751;52.408;12.536;2022-10-22T09:25:54;16.50;;;11.25;;
51664;SDS011;37751;52.408;12.536;2022-10-22T09:28:22;14.98;;;10.88;;
51664;SDS011;37751;52.408;12.536;2022-10-22T09:30:49;14.63;;;9.68;;
51664;SDS011;37751;52.408;12.536;2022-10-22T09:33:24;14.25;;;9.82;;
51664;SDS011;37751;52.408;12.536;2022-10-22T09:35:55;16.15;;;9.77;;
51664;SDS011;37751;52.408;12.536;2022-10-22T09:38:28;11.98;;;8.90;;
51664;SDS011;37751;52.408;12.536;2022-10-22T09:40:59;12.10;;;8.77;;
51664;SDS011;37751;52.408;12.536;2022-10-22T09:43:29;21.73;;;8.80;;
51664;SDS011;37751;52.408;12.536;2022-10-22T09:45:59;16.27;;;9.00;;
51664;SDS011;37751;52.408;12.536;2022-10-22T09:53:47;19.75;;;9.75;;
51664;SDS011;37751;52.408;12.536;2022-10-22T09:56:33;13.40;;;9.27;;
51664;SDS011;37751;52.408;12.536;2022-10-22T09:59:02;12.63;;;9.10;;
51664;SDS011;37751;52.408;12.536;2022-10-22T10:01:34;11.65;;;9.73;;
51664;SDS011;37751;52.408;12.536;2022-10-22T10:04:07;15.50;;;9.38;;
51664;SDS011;37751;52.408;12.536;2022-10-22T10:06:38;12.75;;;9.82;;
51664;SDS011;37751;52.408;12.536;2022-10-22T10:09:14;13.02;;;8.82;;
51664;SDS011;37751;52.408;12.536;2022-10-22T10:14:58;14.00;;;9.00;;
51664;SDS011;37751;52.408;12.536;2022-10-22T10:17:37;13.40;;;8.60;;
51664;SDS011;37751;52.408;12.536;2022-10-22T10:20:21;12.20;;;7.18;;
51664;SDS011;37751;52.408;12.536;2022-10-22T10:23:00;10.38;;;7.18;;
51664;SDS011;37751;52.408;12.536;2022-10-22T10:35:07;12.20;;;5.93;;
51664;SDS011;37751;52.408;12.536;2022-10-22T10:43:12;10.43;;;6.85;;
51664;SDS011;37751;52.408;12.536;2022-10-22T10:49:26;14.52;;;5.80;;
51664;SDS011;37751;52.408;12.536;2022-10-22T10:52:10;6.85;;;4.65;;
51664;SDS011;37751;52.408;12.536;2022-10-22T10:57:44;11.73;;;5.53;;
51664;SDS011;37751;52.408;12.536;2022-10-22T11:00:24;15.82;;;6.38;;
51664;SDS011;37751;52.408;12.536;2022-10-22T11:03:02;12.95;;;6.45;;
51664;SDS011;37751;52.408;12.536;2022-10-22T11:05:49;9.23;;;5.13;;
51664;SDS011;37751;52.408;12.536;2022-10-22T11:08:27;8.73;;;4.93;;
51664;SDS011;37751;52.408;12.536;2022-10-22T11:11:00;14.02;;;5.28;;
51664;SDS011;37751;52.408;12.536;2022-10-22T11:16:51;10.52;;;4.82;;
51664;SDS011;37751;52.408;12.536;2022-10-22T11:19:47;6.90;;;4.00;;
51664;SDS011;37751;52.408;12.536;2022-10-22T11:22:34;9.88;;;4.00;;
51664;SDS011;37751;52.408;12.536;2022-10-22T11:25:45;14.77;;;4.43;;
51664;SDS011;37751;52.408;12.536;2022-10-22T11:31:15;7.97;;;3.03;;
51664;SDS011;37751;52.408;12.536;2022-10-22T11:37:02;4.00;;;2.72;;
51664;SDS011;37751;52.408;12.536;2022-10-22T11:42:32;8.77;;;3.13;;
51664;SDS011;37751;52.408;12.536;2022-10-22T11:58:42;5.65;;;2.10;;
51664;SDS011;37751;52.408;12.536;2022-10-22T12:03:37;10.05;;;1.83;;
51664;SDS011;37751;52.408;12.536;2022-10-22T12:08:41;7.95;;;1.70;;
51664;SDS011;37751;52.408;12.536;2022-10-22T12:11:21;10.25;;;1.88;;
51664;SDS011;37751;52.408;12.536;2022-10-22T12:16:34;5.43;;;2.25;;
51664;SDS011;37751;52.408;12.536;2022-10-22T12:21:52;7.93;;;2.13;;
51664;SDS011;37751;52.408;12.536;2022-10-22T12:24:36;5.55;;;1.45;;
51664;SDS011;37751;52.408;12.536;2022-10-22T12:30:16;16.00;;;1.90;;
51664;SDS011;37751;52.408;12.536;2022-10-22T12:32:57;4.57;;;1.83;;
51664;SDS011;37751;52.408;12.536;2022-10-22T12:35:27;9.85;;;1.90;;
51664;SDS011;37751;52.408;12.536;2022-10-22T12:38:00;7.03;;;1.30;;
51664;SDS011;37751;52.408;12.536;2022-10-22T12:40:32;3.63;;;1.27;;
51664;SDS011;37751;52.408;12.536;2022-10-22T12:43:01;11.55;;;1.80;;
51664;SDS011;37751;52.408;12.536;2022-10-22T12:45:36;9.35;;;1.70;;
51664;SDS011;37751;52.408;12.536;2022-10-22T12:48:05;9.82;;;1.88;;
51664;SDS011;37751;52.408;12.536;2022-10-22T12:50:43;5.25;;;1.48;;
51664;SDS011;37751;52.408;12.536;2022-10-22T12:56:23;7.28;;;1.50;;
51664;SDS011;37751;52.408;12.536;2022-10-22T13:01:55;7.78;;;1.80;;
51664;SDS011;37751;52.408;12.536;2022-10-22T13:07:03;5.22;;;1.58;;
51664;SDS011;37751;52.408;12.536;2022-10-22T13:12:23;6.28;;;1.50;;
51664;SDS011;37751;52.408;12.536;2022-10-22T13:18:20;10.38;;;1.95;;
51664;SDS011;37751;52.408;12.536;2022-10-22T13:20:51;6.80;;;2.17;;
51664;SDS011;37751;52.408;12.536;2022-10-22T13:23:24;7.75;;;1.65;;
51664;SDS011;37751;52.408;12.536;2022-10-22T13:26:03;5.90;;;1.35;;
51664;SDS011;37751;52.408;12.536;2022-10-22T13:28:39;9.90;;;2.08;;
51664;SDS011;37751;52.408;12.536;2022-10-22T13:31:15;5.70;;;1.73;;
51664;SDS011;37751;52.408;12.536;2022-10-22T13:33:46;8.70;;;1.70;;
51664;SDS011;37751;52.408;12.536;2022-10-22T13:36:20;8.15;;;3.05;;
51664;SDS011;37751;52.408;12.536;2022-10-22T13:38:48;5.68;;;1.75;;
51664;SDS011;37751;52.408;12.536;2022-10-22T13:43:46;12.27;;;2.55;;
51664;SDS011;37751;52.408;12.536;2022-10-22T13:46:13;4.65;;;1.80;;
51664;SDS011;37751;52.408;12.536;2022-10-22T13:48:40;7.20;;;1.98;;
51664;SDS011;37751;52.408;12.536;2022-10-22T13:51:41;14.60;;;2.53;;
51664;SDS011;37751;52.408;12.536;2022-10-22T13:54:00;9.00;;;1.70;;
51664;SDS011;37751;52.408;12.536;2022-10-22T13:56:28;11.20;;;2.60;;
51664;SDS011;37751;52.408;12.536;2022-10-22T13:58:55;11.95;;;2.00;;
51664;SDS011;37751;52.408;12.536;2022-10-22T14:01:22;5.43;;;1.95;;
51664;SDS011;37751;52.408;12.536;2022-10-22T14:03:52;10.82;;;2.20;;
51664;SDS011;37751;52.408;12.536;2022-10-22T14:06:23;13.27;;;1.70;;
51664;SDS011;37751;52.408;12.536;2022-10-22T14:08:57;7.38;;;3.28;;
51664;SDS011;37751;52.408;12.536;2022-10-22T14:11:26;11.40;;;2.83;;
51664;SDS011;37751;52.408;12.536;2022-10-22T14:13:55;8.15;;;1.85;;
51664;SDS011;37751;52.408;12.536;2022-10-22T14:16:23;7.07;;;2.75;;
51664;SDS011;37751;52.408;12.536;2022-10-22T14:18:52;13.57;;;2.70;;
51664;SDS011;37751;52.408;12.536;2022-10-22T14:21:20;8.95;;;1.58;;
51664;SDS011;37751;52.408;12.536;2022-10-22T14:23:47;9.40;;;2.10;;
51664;SDS011;37751;52.408;12.536;2022-10-22T14:26:25;8.82;;;1.92;;
51664;SDS011;37751;52.408;12.536;2022-10-22T14:28:56;5.38;;;1.40;;
51664;SDS011;37751;52.408;12.536;2022-10-22T14:31:39;8.10;;;2.50;;
51664;SDS011;37751;52.408;12.536;2022-10-22T14:34:09;7.35;;;1.80;;
51664;SDS011;37751;52.408;12.536;2022-10-22T14:36:38;8.27;;;1.35;;
51664;SDS011;37751;52.408;12.536;2022-10-22T14:39:05;12.95;;;2.67;;
51664;SDS011;37751;52.408;12.536;2022-10-22T14:41:31;12.60;;;1.85;;
51664;SDS011;37751;52.408;12.536;2022-10-22T14:43:58;10.68;;;1.75;;
51664;SDS011;37751;52.408;12.536;2022-10-22T14:46:25;8.10;;;1.70;;
51664;SDS011;37751;52.408;12.536;2022-10-22T14:48:51;9.18;;;2.92;;
51664;SDS011;37751;52.408;12.536;2022-10-22T14:51:19;5.10;;;1.63;;
51664;SDS011;37751;52.408;12.536;2022-10-22T14:53:47;13.77;;;3.03;;
51664;SDS011;37751;52.408;12.536;2022-10-22T14:56:15;3.50;;;1.40;;
51664;SDS011;37751;52.408;12.536;2022-10-22T14:58:46;6.65;;;1.90;;
51664;SDS011;37751;52.408;12.536;2022-10-22T15:01:13;7.63;;;1.75;;
51664;SDS011;37751;52.408;12.536;2022-10-22T15:03:40;9.65;;;2.00;;
51664;SDS011;37751;52.408;12.536;2022-10-22T15:06:06;18.50;;;2.33;;
51664;SDS011;37751;52.408;12.536;2022-10-22T15:08:33;10.07;;;1.88;;
51664;SDS011;37751;52.408;12.536;2022-10-22T15:11:03;6.72;;;1.70;;
51664;SDS011;37751;52.408;12.536;2022-10-22T15:13:33;6.40;;;1.63;;
51664;SDS011;37751;52.408;12.536;2022-10-22T15:16:00;12.38;;;1.73;;
51664;SDS011;37751;52.408;12.536;2022-10-22T15:18:32;14.07;;;2.63;;
51664;SDS011;37751;52.408;12.536;2022-10-22T15:21:00;3.00;;;1.75;;
51664;SDS011;37751;52.408;12.536;2022-10-22T15:23:31;8.23;;;2.20;;
51664;SDS011;37751;52.408;12.536;2022-10-22T15:25:57;16.02;;;4.13;;
51664;SDS011;37751;52.408;12.536;2022-10-22T15:28:24;10.73;;;3.25;;
51664;SDS011;37751;52.408;12.536;2022-10-22T15:30:54;16.35;;;5.90;;
51664;SDS011;37751;52.408;12.536;2022-10-22T15:33:24;9.32;;;2.97;;
51664;SDS011;37751;52.408;12.536;2022-10-22T15:35:52;10.50;;;2.88;;
51664;SDS011;37751;52.408;12.536;2022-10-22T15:38:18;11.70;;;3.42;;
51664;SDS011;37751;52.408;12.536;2022-10-22T15:40:45;16.65;;;4.65;;
51664;SDS011;37751;52.408;12.536;2022-10-22T15:43:12;9.30;;;3.75;;
51664;SDS011;37751;52.408;12.536;2022-10-22T15:45:39;13.35;;;3.92;;
51664;SDS011;37751;52.408;12.536;2022-10-22T15:48:06;7.72;;;3.25;;
51664;SDS011;37751;52.408;12.536;2022-10-22T15:50:36;9.68;;;3.30;;
51664;SDS011;37751;52.408;12.536;2022-10-22T15:53:04;12.15;;;3.08;;
51664;SDS011;37751;52.408;12.536;2022-10-22T15:55:30;8.23;;;2.58;;
51664;SDS011;37751;52.408;12.536;2022-10-22T15:57:57;9.73;;;2.38;;
51664;SDS011;37751;52.408;12.536;2022-10-22T16:00:28;7.88;;;2.85;;
51664;SDS011;37751;52.408;12.536;2022-10-22T16:02:55;7.72;;;3.33;;
51664;SDS011;37751;52.408;12.536;2022-10-22T16:05:21;11.23;;;4.18;;
51664;SDS011;37751;52.408;12.536;2022-10-22T16:07:48;12.27;;;3.50;;
51664;SDS011;37751;52.408;12.536;2022-10-22T16:10:16;14.13;;;4.13;;
51664;SDS011;37751;52.408;12.536;2022-10-22T16:12:43;10.10;;;3.70;;
51664;SDS011;37751;52.408;12.536;2022-10-22T16:15:09;8.40;;;2.72;;
51664;SDS011;37751;52.408;12.536;2022-10-22T16:17:36;6.90;;;2.33;;
51664;SDS011;37751;52.408;12.536;2022-10-22T16:20:03;7.07;;;2.10;;
51664;SDS011;37751;52.408;12.536;2022-10-22T16:22:30;8.27;;;2.63;;
51664;SDS011;37751;52.408;12.536;2022-10-22T16:24:56;6.18;;;2.80;;
51664;SDS011;37751;52.408;12.536;2022-10-22T16:27:23;17.58;;;3.17;;
51664;SDS011;37751;52.408;12.536;2022-10-22T16:29:52;12.13;;;3.20;;
51664;SDS011;37751;52.408;12.536;2022-10-22T16:32:19;5.85;;;2.38;;
51664;SDS011;37751;52.408;12.536;2022-10-22T16:34:46;10.85;;;3.72;;
51664;SDS011;37751;52.408;12.536;2022-10-22T16:37:12;11.40;;;3.17;;
51664;SDS011;37751;52.408;12.536;2022-10-22T16:39:39;10.75;;;4.00;;